Terminal Aerodrome Forecast
Issued by NWS

Home | Current Version | Previous Version | Text Only | Print | Product List | Glossary On
Versions: 1 2 3 4 5 6 7 8 9 10 11 12 13 14 15 16 17 18 19 20 21 22 23 24 25 26 27 28 29 30 31 32 33 34 35 36 37 38
000
FTUS42 KRAH 261725
TAFRWI
TAF
KRWI 261725Z 2618/2718 03005KT P6SM FEW250
     FM262300 00000KT P6SM FEW150
     FM271000 00000KT P6SM BKN080
     FM271500 02006KT P6SM BKN070=

USA.gov is the U.S. government's official web portal to all federal, state and local government web resources and services.